sensor_id;sensor_type;location;lat;lon;timestamp;pressure;altitude;pressure_sealevel;temperature;humidity
65054;BME280;51639;47.828;35.038;2022-09-09T00:25:24;100680.47;;;15.20;71.89
65054;BME280;51639;47.828;35.038;2022-09-09T00:40:34;100672.28;;;15.32;69.15
65054;BME280;51639;47.828;35.038;2022-09-09T00:55:54;100668.78;;;15.45;69.80
65054;BME280;51639;47.828;35.038;2022-09-09T01:10:58;100675.88;;;15.29;68.98
65054;BME280;51639;47.828;35.038;2022-09-09T01:26:12;100674.13;;;15.35;69.22
65054;BME280;51639;47.828;35.038;2022-09-09T01:41:15;100681.03;;;15.27;68.76
65054;BME280;51639;47.828;35.038;2022-09-09T02:11:38;100690.31;;;15.17;69.99
65054;BME280;51639;47.828;35.038;2022-09-09T02:26:42;100683.28;;;15.04;71.27
65054;BME280;51639;47.828;35.038;2022-09-09T02:41:45;100702.59;;;14.84;72.35
65054;BME280;51639;47.828;35.038;2022-09-09T02:56:52;100726.28;;;14.74;74.11
65054;BME280;51639;47.828;35.038;2022-09-09T03:11:58;100740.59;;;14.33;77.39
65054;BME280;51639;47.828;35.038;2022-09-09T03:27:00;100743.16;;;13.91;79.11
65054;BME280;51639;47.828;35.038;2022-09-09T03:42:02;100743.56;;;14.06;78.45
65054;BME280;51639;47.828;35.038;2022-09-09T03:57:07;100735.13;;;14.33;83.71
65054;BME280;51639;47.828;35.038;2022-09-09T04:12:08;100752.13;;;14.41;82.74
65054;BME280;51639;47.828;35.038;2022-09-09T04:27:12;100749.19;;;14.93;82.67
65054;BME280;51639;47.828;35.038;2022-09-09T04:42:14;100760.13;;;15.76;79.81
65054;BME280;51639;47.828;35.038;2022-09-09T04:57:18;100754.84;;;16.54;76.98
65054;BME280;51639;47.828;35.038;2022-09-09T05:12:19;100743.00;;;17.14;75.02
65054;BME280;51639;47.828;35.038;2022-09-09T05:27:21;100750.03;;;18.17;70.64
65054;BME280;51639;47.828;35.038;2022-09-09T05:42:24;100765.69;;;18.93;66.44
65054;BME280;51639;47.828;35.038;2022-09-09T05:57:26;100769.75;;;19.85;60.71
65054;BME280;51639;47.828;35.038;2022-09-09T06:12:31;100775.91;;;20.46;57.90
65054;BME280;51639;47.828;35.038;2022-09-09T06:27:34;100788.91;;;21.67;53.91
65054;BME280;51639;47.828;35.038;2022-09-09T06:42:36;100794.19;;;22.75;50.73
65054;BME280;51639;47.828;35.038;2022-09-09T06:57:38;100803.59;;;23.04;49.79
65054;BME280;51639;47.828;35.038;2022-09-09T07:12:40;100799.44;;;23.45;48.05
65054;BME280;51639;47.828;35.038;2022-09-09T07:27:42;100818.94;;;24.20;47.05
65054;BME280;51639;47.828;35.038;2022-09-09T07:42:44;100814.34;;;23.74;47.46
65054;BME280;51639;47.828;35.038;2022-09-09T07:57:48;100809.47;;;25.08;44.70
65054;BME280;51639;47.828;35.038;2022-09-09T08:12:53;100823.97;;;25.90;43.02
65054;BME280;51639;47.828;35.038;2022-09-09T08:28:15;100786.75;;;26.15;40.45
65054;BME280;51639;47.828;35.038;2022-09-09T08:43:20;100772.38;;;26.69;39.42
65054;BME280;51639;47.828;35.038;2022-09-09T08:58:30;100783.16;;;26.37;39.10
65054;BME280;51639;47.828;35.038;2022-09-09T09:28:46;100766.91;;;27.89;35.35
65054;BME280;51639;47.828;35.038;2022-09-09T09:43:53;100777.13;;;28.54;32.55
65054;BME280;51639;47.828;35.038;2022-09-09T09:58:56;100768.09;;;28.24;34.37
65054;BME280;51639;47.828;35.038;2022-09-09T10:29:19;100767.47;;;27.63;34.08
65054;BME280;51639;47.828;35.038;2022-09-09T10:59:33;100742.88;;;29.68;29.14
65054;BME280;51639;47.828;35.038;2022-09-09T11:45:28;100726.84;;;28.92;30.93
65054;BME280;51639;47.828;35.038;2022-09-09T12:00:42;100714.22;;;27.31;32.10
65054;BME280;51639;47.828;35.038;2022-09-09T12:15:56;100707.25;;;26.37;31.15
65054;BME280;51639;47.828;35.038;2022-09-09T13:03:18;100719.03;;;24.73;33.96
65054;BME280;51639;47.828;35.038;2022-09-09T13:19:08;100726.06;;;24.09;33.82
65054;BME280;51639;47.828;35.038;2022-09-09T14:04:16;100731.00;;;23.52;36.59
65054;BME280;51639;47.828;35.038;2022-09-09T14:19:18;100744.63;;;23.24;37.82
65054;BME280;51639;47.828;35.038;2022-09-09T14:34:20;100752.34;;;22.88;39.17
65054;BME280;51639;47.828;35.038;2022-09-09T14:49:22;100759.19;;;22.52;39.78
65054;BME280;51639;47.828;35.038;2022-09-09T15:04:24;100757.28;;;22.18;41.39
65054;BME280;51639;47.828;35.038;2022-09-09T15:19:26;100774.78;;;21.79;41.54
65054;BME280;51639;47.828;35.038;2022-09-09T15:34:27;100788.25;;;21.57;42.39
65054;BME280;51639;47.828;35.038;2022-09-09T15:49:29;100788.47;;;21.24;42.87
65054;BME280;51639;47.828;35.038;2022-09-09T16:04:32;100803.72;;;20.96;43.65
65054;BME280;51639;47.828;35.038;2022-09-09T16:19:35;100819.38;;;20.75;43.69
65054;BME280;51639;47.828;35.038;2022-09-09T16:34:41;100832.78;;;20.58;43.79
65054;BME280;51639;47.828;35.038;2022-09-09T16:49:44;100842.66;;;20.50;43.71
65054;BME280;51639;47.828;35.038;2022-09-09T17:21:12;100876.28;;;19.88;40.94
65054;BME280;51639;47.828;35.038;2022-09-09T17:36:28;100882.75;;;19.67;40.77
65054;BME280;51639;47.828;35.038;2022-09-09T17:51:31;100886.91;;;19.44;40.72
65054;BME280;51639;47.828;35.038;2022-09-09T18:06:37;100891.81;;;19.22;40.79
65054;BME280;51639;47.828;35.038;2022-09-09T18:21:41;100895.47;;;19.10;41.29
65054;BME280;51639;47.828;35.038;2022-09-09T18:36:48;100880.59;;;18.70;40.83
65054;BME280;51639;47.828;35.038;2022-09-09T18:51:51;100896.25;;;18.52;41.08
65054;BME280;51639;47.828;35.038;2022-09-09T19:06:53;100902.44;;;18.34;41.36
65054;BME280;51639;47.828;35.038;2022-09-09T19:22:01;100911.72;;;18.18;41.11
65054;BME280;51639;47.828;35.038;2022-09-09T19:37:03;100912.78;;;17.90;41.44
65054;BME280;51639;47.828;35.038;2022-09-09T19:52:05;100926.84;;;17.70;41.31
65054;BME280;51639;47.828;35.038;2022-09-09T20:07:07;100936.25;;;17.47;42.19
65054;BME280;51639;47.828;35.038;2022-09-09T20:22:09;100923.31;;;17.35;42.67
65054;BME280;51639;47.828;35.038;2022-09-09T20:37:11;100930.22;;;17.05;42.82
65054;BME280;51639;47.828;35.038;2022-09-09T20:52:14;100946.72;;;16.92;42.40
65054;BME280;51639;47.828;35.038;2022-09-09T21:07:16;100968.97;;;16.82;42.45
65054;BME280;51639;47.828;35.038;2022-09-09T21:22:18;100986.94;;;16.57;42.25
65054;BME280;51639;47.828;35.038;2022-09-09T21:37:19;100981.34;;;16.48;42.15
65054;BME280;51639;47.828;35.038;2022-09-09T21:52:21;100988.44;;;16.33;41.88
65054;BME280;51639;47.828;35.038;2022-09-09T22:07:23;100992.38;;;16.19;42.13
65054;BME280;51639;47.828;35.038;2022-09-09T22:22:25;100993.31;;;16.13;42.44
65054;BME280;51639;47.828;35.038;2022-09-09T22:37:27;100997.78;;;16.07;42.60
65054;BME280;51639;47.828;35.038;2022-09-09T22:52:29;100992.91;;;15.85;43.44
65054;BME280;51639;47.828;35.038;2022-09-09T23:07:34;101014.53;;;15.67;44.50
65054;BME280;51639;47.828;35.038;2022-09-09T23:22:36;101015.91;;;15.43;45.54
65054;BME280;51639;47.828;35.038;2022-09-09T23:37:39;101027.63;;;15.11;48.96
65054;BME280;51639;47.828;35.038;2022-09-09T23:52:41;101021.41;;;14.38;60.46
